sensor_id;sensor_type;location;lat;lon;timestamp;pressure;altitude;pressure_sealevel;temperature;humidity
75298;BME280;63896;45.990;18.688;2022-12-07T00:01:54;100809.59;;;-1.12;100.00
75298;BME280;63896;45.990;18.688;2022-12-07T00:04:57;100798.22;;;-1.11;100.00
75298;BME280;63896;45.990;18.688;2022-12-07T00:08:00;100805.59;;;-1.16;100.00
75298;BME280;63896;45.990;18.688;2022-12-07T00:11:13;100809.00;;;-1.15;100.00
75298;BME280;63896;45.990;18.688;2022-12-07T00:14:17;100806.34;;;-1.04;100.00
75298;BME280;63896;45.990;18.688;2022-12-07T00:17:20;100806.66;;;-0.98;100.00
75298;BME280;63896;45.990;18.688;2022-12-07T00:20:23;100808.28;;;-0.97;100.00
75298;BME280;63896;45.990;18.688;2022-12-07T00:23:26;100798.66;;;-1.06;100.00
75298;BME280;63896;45.990;18.688;2022-12-07T00:26:37;100792.00;;;-1.19;100.00
75298;BME280;63896;45.990;18.688;2022-12-07T00:29:41;100799.00;;;-1.20;100.00
75298;BME280;63896;45.990;18.688;2022-12-07T00:32:43;100791.25;;;-1.10;100.00
75298;BME280;63896;45.990;18.688;2022-12-07T00:35:46;100798.53;;;-1.04;100.00
75298;BME280;63896;45.990;18.688;2022-12-07T00:38:49;100791.78;;;-1.16;100.00
75298;BME280;63896;45.990;18.688;2022-12-07T00:41:52;100793.72;;;-1.09;100.00
75298;BME280;63896;45.990;18.688;2022-12-07T00:44:55;100798.50;;;-1.14;100.00
75298;BME280;63896;45.990;18.688;2022-12-07T00:47:58;100803.25;;;-1.19;100.00
75298;BME280;63896;45.990;18.688;2022-12-07T00:51:01;100798.41;;;-1.23;100.00
75298;BME280;63896;45.990;18.688;2022-12-07T00:54:04;100799.88;;;-1.10;100.00
75298;BME280;63896;45.990;18.688;2022-12-07T00:57:07;100811.31;;;-1.01;100.00
75298;BME280;63896;45.990;18.688;2022-12-07T01:00:10;100805.38;;;-1.03;100.00
75298;BME280;63896;45.990;18.688;2022-12-07T01:03:17;100791.97;;;-1.08;100.00
75298;BME280;63896;45.990;18.688;2022-12-07T01:06:21;100799.88;;;-1.10;100.00
75298;BME280;63896;45.990;18.688;2022-12-07T01:09:24;100797.72;;;-1.05;100.00
75298;BME280;63896;45.990;18.688;2022-12-07T01:12:27;100794.28;;;-1.05;100.00
75298;BME280;63896;45.990;18.688;2022-12-07T01:15:30;100789.72;;;-1.13;100.00
75298;BME280;63896;45.990;18.688;2022-12-07T01:18:34;100791.53;;;-1.04;100.00
75298;BME280;63896;45.990;18.688;2022-12-07T01:21:38;100793.38;;;-0.94;100.00
75298;BME280;63896;45.990;18.688;2022-12-07T01:24:41;100792.44;;;-0.93;100.00
75298;BME280;63896;45.990;18.688;2022-12-07T01:27:44;100786.25;;;-0.92;100.00
75298;BME280;63896;45.990;18.688;2022-12-07T01:30:55;100784.72;;;-0.95;100.00
75298;BME280;63896;45.990;18.688;2022-12-07T01:33:59;100784.47;;;-0.92;100.00
75298;BME280;63896;45.990;18.688;2022-12-07T01:37:03;100777.09;;;-0.87;100.00
75298;BME280;63896;45.990;18.688;2022-12-07T01:40:07;100779.81;;;-0.88;100.00
75298;BME280;63896;45.990;18.688;2022-12-07T01:43:16;100772.84;;;-0.88;100.00
75298;BME280;63896;45.990;18.688;2022-12-07T01:46:20;100772.56;;;-0.85;100.00
75298;BME280;63896;45.990;18.688;2022-12-07T01:49:36;100777.81;;;-0.75;100.00
75298;BME280;63896;45.990;18.688;2022-12-07T01:52:41;100778.50;;;-0.73;100.00
75298;BME280;63896;45.990;18.688;2022-12-07T01:55:49;100778.00;;;-0.67;100.00
75298;BME280;63896;45.990;18.688;2022-12-07T01:58:55;100775.00;;;-0.63;100.00
75298;BME280;63896;45.990;18.688;2022-12-07T02:02:00;100768.91;;;-0.73;100.00
75298;BME280;63896;45.990;18.688;2022-12-07T02:05:06;100766.88;;;-0.69;100.00
75298;BME280;63896;45.990;18.688;2022-12-07T02:08:09;100763.03;;;-0.65;100.00
75298;BME280;63896;45.990;18.688;2022-12-07T02:11:13;100766.06;;;-0.70;100.00
75298;BME280;63896;45.990;18.688;2022-12-07T02:14:16;100757.28;;;-0.69;100.00
75298;BME280;63896;45.990;18.688;2022-12-07T02:20:33;100757.16;;;-0.67;100.00
75298;BME280;63896;45.990;18.688;2022-12-07T02:30:14;100747.72;;;-0.59;100.00
75298;BME280;63896;45.990;18.688;2022-12-07T02:33:26;100743.34;;;-0.49;100.00
75298;BME280;63896;45.990;18.688;2022-12-07T02:36:35;100741.84;;;-0.51;100.00
75298;BME280;63896;45.990;18.688;2022-12-07T02:39:46;100741.69;;;-0.59;100.00
75298;BME280;63896;45.990;18.688;2022-12-07T02:42:55;100741.25;;;-0.64;100.00
75298;BME280;63896;45.990;18.688;2022-12-07T02:46:11;100740.84;;;-0.50;100.00
75298;BME280;63896;45.990;18.688;2022-12-07T02:49:17;100737.69;;;-0.63;100.00
75298;BME280;63896;45.990;18.688;2022-12-07T02:52:21;100736.88;;;-0.64;100.00
75298;BME280;63896;45.990;18.688;2022-12-07T02:55:36;100731.75;;;-0.75;100.00
75298;BME280;63896;45.990;18.688;2022-12-07T03:12:32;100712.53;;;-0.93;100.00
75298;BME280;63896;45.990;18.688;2022-12-07T03:19:12;100703.56;;;-1.00;100.00
75298;BME280;63896;45.990;18.688;2022-12-07T03:22:17;100706.50;;;-0.93;100.00
75298;BME280;63896;45.990;18.688;2022-12-07T03:25:22;100716.03;;;-1.04;100.00
75298;BME280;63896;45.990;18.688;2022-12-07T03:28:29;100729.75;;;-1.02;100.00
75298;BME280;63896;45.990;18.688;2022-12-07T03:31:39;100719.34;;;-1.02;100.00
75298;BME280;63896;45.990;18.688;2022-12-07T03:34:50;100718.88;;;-1.16;100.00
75298;BME280;63896;45.990;18.688;2022-12-07T03:41:25;100710.53;;;-1.20;100.00
75298;BME280;63896;45.990;18.688;2022-12-07T03:44:28;100696.50;;;-1.28;100.00
75298;BME280;63896;45.990;18.688;2022-12-07T03:54:23;100704.63;;;-1.42;100.00
75298;BME280;63896;45.990;18.688;2022-12-07T03:57:29;100699.84;;;-1.47;100.00
75298;BME280;63896;45.990;18.688;2022-12-07T04:00:35;100685.84;;;-1.46;100.00
75298;BME280;63896;45.990;18.688;2022-12-07T04:03:38;100683.78;;;-1.52;100.00
75298;BME280;63896;45.990;18.688;2022-12-07T04:06:41;100682.13;;;-1.53;100.00
75298;BME280;63896;45.990;18.688;2022-12-07T04:09:44;100686.94;;;-1.49;100.00
75298;BME280;63896;45.990;18.688;2022-12-07T04:12:47;100680.81;;;-1.48;100.00
75298;BME280;63896;45.990;18.688;2022-12-07T04:15:49;100671.50;;;-1.40;100.00
75298;BME280;63896;45.990;18.688;2022-12-07T04:18:52;100672.75;;;-1.35;100.00
75298;BME280;63896;45.990;18.688;2022-12-07T04:21:57;100680.66;;;-1.46;100.00
75298;BME280;63896;45.990;18.688;2022-12-07T04:25:00;100673.94;;;-1.49;100.00
75298;BME280;63896;45.990;18.688;2022-12-07T04:28:03;100678.22;;;-1.38;100.00
75298;BME280;63896;45.990;18.688;2022-12-07T04:31:06;100682.84;;;-1.21;100.00
75298;BME280;63896;45.990;18.688;2022-12-07T04:34:09;100692.44;;;-1.42;100.00
75298;BME280;63896;45.990;18.688;2022-12-07T04:37:12;100687.44;;;-1.34;100.00
75298;BME280;63896;45.990;18.688;2022-12-07T04:40:15;100696.53;;;-1.19;100.00
75298;BME280;63896;45.990;18.688;2022-12-07T04:43:18;100694.16;;;-1.31;100.00
75298;BME280;63896;45.990;18.688;2022-12-07T04:46:22;100690.41;;;-1.38;100.00
75298;BME280;63896;45.990;18.688;2022-12-07T04:49:26;100687.63;;;-1.47;100.00
75298;BME280;63896;45.990;18.688;2022-12-07T04:52:29;100688.34;;;-1.45;100.00
75298;BME280;63896;45.990;18.688;2022-12-07T04:55:32;100683.44;;;-1.38;100.00
75298;BME280;63896;45.990;18.688;2022-12-07T04:58:35;100690.31;;;-1.27;100.00
75298;BME280;63896;45.990;18.688;2022-12-07T05:01:38;100683.75;;;-1.31;100.00
75298;BME280;63896;45.990;18.688;2022-12-07T05:04:41;100690.84;;;-1.33;100.00
75298;BME280;63896;45.990;18.688;2022-12-07T05:07:44;100687.31;;;-1.32;100.00
75298;BME280;63896;45.990;18.688;2022-12-07T05:10:48;100696.19;;;-1.35;100.00
75298;BME280;63896;45.990;18.688;2022-12-07T05:13:51;100691.69;;;-1.33;100.00
75298;BME280;63896;45.990;18.688;2022-12-07T05:16:54;100699.50;;;-1.23;100.00
75298;BME280;63896;45.990;18.688;2022-12-07T05:19:57;100697.19;;;-1.26;100.00
75298;BME280;63896;45.990;18.688;2022-12-07T05:23:00;100702.38;;;-1.26;100.00
75298;BME280;63896;45.990;18.688;2022-12-07T05:26:04;100712.38;;;-1.31;100.00
75298;BME280;63896;45.990;18.688;2022-12-07T05:29:13;100715.38;;;-1.36;100.00
75298;BME280;63896;45.990;18.688;2022-12-07T05:32:17;100713.44;;;-1.34;100.00
75298;BME280;63896;45.990;18.688;2022-12-07T05:35:20;100710.66;;;-1.42;100.00
75298;BME280;63896;45.990;18.688;2022-12-07T05:38:23;100705.59;;;-1.43;100.00
75298;BME280;63896;45.990;18.688;2022-12-07T05:41:27;100704.41;;;-1.39;100.00
75298;BME280;63896;45.990;18.688;2022-12-07T05:44:49;100708.81;;;-1.30;100.00
75298;BME280;63896;45.990;18.688;2022-12-07T05:47:51;100710.84;;;-1.34;100.00
75298;BME280;63896;45.990;18.688;2022-12-07T05:50:54;100696.13;;;-1.24;100.00
75298;BME280;63896;45.990;18.688;2022-12-07T05:53:57;100705.88;;;-1.07;100.00
75298;BME280;63896;45.990;18.688;2022-12-07T05:57:00;100700.03;;;-0.99;100.00
75298;BME280;63896;45.990;18.688;2022-12-07T06:00:04;100706.44;;;-1.03;100.00
75298;BME280;63896;45.990;18.688;2022-12-07T06:03:13;100709.03;;;-1.13;100.00
75298;BME280;63896;45.990;18.688;2022-12-07T06:06:16;100709.16;;;-1.14;100.00
75298;BME280;63896;45.990;18.688;2022-12-07T06:09:21;100715.75;;;-1.10;100.00
75298;BME280;63896;45.990;18.688;2022-12-07T06:12:24;100711.63;;;-1.13;100.00
75298;BME280;63896;45.990;18.688;2022-12-07T06:15:36;100706.56;;;-1.14;100.00
75298;BME280;63896;45.990;18.688;2022-12-07T06:18:39;100700.09;;;-1.20;100.00
75298;BME280;63896;45.990;18.688;2022-12-07T06:21:42;100701.44;;;-1.25;100.00
75298;BME280;63896;45.990;18.688;2022-12-07T06:24:45;100708.16;;;-1.23;100.00
75298;BME280;63896;45.990;18.688;2022-12-07T06:27:48;100714.34;;;-1.24;100.00
75298;BME280;63896;45.990;18.688;2022-12-07T06:31:01;100716.13;;;-1.15;100.00
75298;BME280;63896;45.990;18.688;2022-12-07T06:34:07;100720.69;;;-1.07;100.00
75298;BME280;63896;45.990;18.688;2022-12-07T06:37:11;100715.91;;;-1.02;100.00
75298;BME280;63896;45.990;18.688;2022-12-07T06:40:14;100726.88;;;-1.08;100.00
75298;BME280;63896;45.990;18.688;2022-12-07T06:43:17;100715.31;;;-1.15;100.00
75298;BME280;63896;45.990;18.688;2022-12-07T06:46:20;100727.16;;;-1.02;100.00
75298;BME280;63896;45.990;18.688;2022-12-07T06:49:23;100714.69;;;-0.98;99.87
75298;BME280;63896;45.990;18.688;2022-12-07T06:52:26;100721.13;;;-1.02;99.16
75298;BME280;63896;45.990;18.688;2022-12-07T06:55:28;100719.63;;;-1.05;99.66
75298;BME280;63896;45.990;18.688;2022-12-07T06:58:31;100722.22;;;-1.05;100.00
75298;BME280;63896;45.990;18.688;2022-12-07T07:01:35;100724.97;;;-0.97;99.56
75298;BME280;63896;45.990;18.688;2022-12-07T07:04:38;100714.31;;;-0.93;99.60
75298;BME280;63896;45.990;18.688;2022-12-07T07:07:44;100715.69;;;-0.89;99.17
75298;BME280;63896;45.990;18.688;2022-12-07T07:11:09;100731.38;;;-0.70;98.95
75298;BME280;63896;45.990;18.688;2022-12-07T07:14:12;100716.41;;;-0.68;98.42
75298;BME280;63896;45.990;18.688;2022-12-07T07:17:19;100722.88;;;-0.53;97.91
75298;BME280;63896;45.990;18.688;2022-12-07T07:20:22;100723.28;;;-0.58;97.82
75298;BME280;63896;45.990;18.688;2022-12-07T07:23:26;100727.03;;;-0.41;97.58
75298;BME280;63896;45.990;18.688;2022-12-07T07:26:29;100716.78;;;-0.23;97.23
75298;BME280;63896;45.990;18.688;2022-12-07T07:29:33;100711.97;;;-0.09;96.94
75298;BME280;63896;45.990;18.688;2022-12-07T07:32:35;100712.06;;;0.19;96.27
75298;BME280;63896;45.990;18.688;2022-12-07T07:35:39;100710.47;;;0.55;94.44
75298;BME280;63896;45.990;18.688;2022-12-07T07:38:44;100720.84;;;1.38;90.72
75298;BME280;63896;45.990;18.688;2022-12-07T07:41:50;100721.63;;;1.83;89.00
75298;BME280;63896;45.990;18.688;2022-12-07T07:45:00;100731.31;;;2.52;87.35
75298;BME280;63896;45.990;18.688;2022-12-07T07:48:39;100718.16;;;3.38;86.99
75298;BME280;63896;45.990;18.688;2022-12-07T07:51:46;100714.78;;;3.61;85.27
75298;BME280;63896;45.990;18.688;2022-12-07T07:54:51;100726.28;;;3.93;83.19
75298;BME280;63896;45.990;18.688;2022-12-07T07:57:54;100722.31;;;4.53;82.18
75298;BME280;63896;45.990;18.688;2022-12-07T08:01:03;100730.50;;;4.74;80.13
75298;BME280;63896;45.990;18.688;2022-12-07T08:04:08;100722.09;;;4.79;81.54
75298;BME280;63896;45.990;18.688;2022-12-07T08:07:13;100723.69;;;4.96;81.33
75298;BME280;63896;45.990;18.688;2022-12-07T08:10:17;100711.50;;;5.96;80.16
75298;BME280;63896;45.990;18.688;2022-12-07T08:13:21;100710.75;;;6.47;79.37
75298;BME280;63896;45.990;18.688;2022-12-07T08:16:42;100712.31;;;7.00;78.16
75298;BME280;63896;45.990;18.688;2022-12-07T08:19:45;100722.38;;;7.41;73.94
75298;BME280;63896;45.990;18.688;2022-12-07T08:22:48;100718.91;;;7.76;74.38
75298;BME280;63896;45.990;18.688;2022-12-07T08:25:51;100717.34;;;8.03;72.62
75298;BME280;63896;45.990;18.688;2022-12-07T08:28:54;100734.06;;;8.52;72.25
75298;BME280;63896;45.990;18.688;2022-12-07T08:32:02;100729.94;;;8.50;67.78
75298;BME280;63896;45.990;18.688;2022-12-07T08:35:11;100734.63;;;8.05;69.28
75298;BME280;63896;45.990;18.688;2022-12-07T08:38:15;100733.72;;;8.20;67.85
75298;BME280;63896;45.990;18.688;2022-12-07T08:41:19;100755.31;;;7.45;71.21
75298;BME280;63896;45.990;18.688;2022-12-07T08:44:22;100730.09;;;7.78;68.16
75298;BME280;63896;45.990;18.688;2022-12-07T08:47:25;100751.81;;;8.65;66.03
75298;BME280;63896;45.990;18.688;2022-12-07T08:50:28;100743.94;;;8.44;64.82
75298;BME280;63896;45.990;18.688;2022-12-07T08:53:33;100753.63;;;8.92;63.79
75298;BME280;63896;45.990;18.688;2022-12-07T08:56:37;100759.84;;;8.78;64.74
75298;BME280;63896;45.990;18.688;2022-12-07T08:59:40;100751.06;;;9.05;62.16
75298;BME280;63896;45.990;18.688;2022-12-07T09:02:44;100739.59;;;9.33;61.35
75298;BME280;63896;45.990;18.688;2022-12-07T09:05:47;100754.19;;;9.63;61.82
75298;BME280;63896;45.990;18.688;2022-12-07T09:08:59;100748.81;;;10.11;60.35
75298;BME280;63896;45.990;18.688;2022-12-07T09:12:05;100755.34;;;11.51;54.65
75298;BME280;63896;45.990;18.688;2022-12-07T09:15:08;100741.19;;;13.01;51.53
75298;BME280;63896;45.990;18.688;2022-12-07T09:18:11;100745.00;;;14.19;49.20
75298;BME280;63896;45.990;18.688;2022-12-07T09:21:14;100748.97;;;16.01;43.13
75298;BME280;63896;45.990;18.688;2022-12-07T09:24:17;100740.66;;;15.46;44.18
75298;BME280;63896;45.990;18.688;2022-12-07T09:27:20;100743.09;;;14.84;44.66
75298;BME280;63896;45.990;18.688;2022-12-07T09:30:24;100748.88;;;14.35;46.78
75298;BME280;63896;45.990;18.688;2022-12-07T09:33:29;100751.75;;;12.89;50.11
75298;BME280;63896;45.990;18.688;2022-12-07T09:36:32;100743.34;;;13.47;48.69
75298;BME280;63896;45.990;18.688;2022-12-07T09:39:39;100738.44;;;13.62;46.92
75298;BME280;63896;45.990;18.688;2022-12-07T09:42:53;100736.31;;;13.16;50.06
75298;BME280;63896;45.990;18.688;2022-12-07T09:45:57;100740.56;;;14.77;45.39
75298;BME280;63896;45.990;18.688;2022-12-07T09:49:01;100724.13;;;15.89;45.43
75298;BME280;63896;45.990;18.688;2022-12-07T09:55:34;100725.06;;;13.14;48.93
75298;BME280;63896;45.990;18.688;2022-12-07T09:58:39;100726.22;;;12.81;49.34
75298;BME280;63896;45.990;18.688;2022-12-07T10:01:42;100719.41;;;11.86;51.90
75298;BME280;63896;45.990;18.688;2022-12-07T10:04:45;100716.09;;;11.53;52.78
75298;BME280;63896;45.990;18.688;2022-12-07T10:07:48;100715.41;;;12.02;51.57
75298;BME280;63896;45.990;18.688;2022-12-07T10:10:55;100721.94;;;11.68;52.50
75298;BME280;63896;45.990;18.688;2022-12-07T10:14:11;100713.22;;;13.10;48.72
75298;BME280;63896;45.990;18.688;2022-12-07T10:17:37;100718.19;;;13.24;47.27
75298;BME280;63896;45.990;18.688;2022-12-07T10:20:47;100714.56;;;11.70;52.27
75298;BME280;63896;45.990;18.688;2022-12-07T10:24:04;100720.22;;;11.49;52.02
75298;BME280;63896;45.990;18.688;2022-12-07T10:27:30;100719.97;;;11.06;53.69
75298;BME280;63896;45.990;18.688;2022-12-07T10:30:52;100714.06;;;10.97;54.39
75298;BME280;63896;45.990;18.688;2022-12-07T10:34:00;100720.97;;;11.12;54.03
75298;BME280;63896;45.990;18.688;2022-12-07T10:40:30;100712.31;;;10.45;56.09
75298;BME280;63896;45.990;18.688;2022-12-07T10:43:56;100706.34;;;10.83;54.71
75298;BME280;63896;45.990;18.688;2022-12-07T10:47:19;100696.50;;;11.47;52.69
75298;BME280;63896;45.990;18.688;2022-12-07T10:51:02;100695.03;;;12.46;50.41
75298;BME280;63896;45.990;18.688;2022-12-07T10:57:53;100690.63;;;14.66;44.84
75298;BME280;63896;45.990;18.688;2022-12-07T11:01:13;100678.66;;;13.03;48.69
75298;BME280;63896;45.990;18.688;2022-12-07T11:11:35;100682.56;;;9.30;59.60
75298;BME280;63896;45.990;18.688;2022-12-07T11:22:19;100689.06;;;10.47;56.38
75298;BME280;63896;45.990;18.688;2022-12-07T11:39:37;100677.00;;;11.22;54.75
75298;BME280;63896;45.990;18.688;2022-12-07T11:42:50;100670.47;;;10.08;58.20
75298;BME280;63896;45.990;18.688;2022-12-07T11:50:34;100663.41;;;8.19;65.30
75298;BME280;63896;45.990;18.688;2022-12-07T12:00:43;100650.34;;;9.14;61.65
75298;BME280;63896;45.990;18.688;2022-12-07T12:03:58;100649.16;;;8.82;62.91
75298;BME280;63896;45.990;18.688;2022-12-07T12:07:06;100655.38;;;9.02;62.46
75298;BME280;63896;45.990;18.688;2022-12-07T12:10:37;100648.59;;;8.86;62.56
75298;BME280;63896;45.990;18.688;2022-12-07T12:21:20;100646.50;;;8.41;62.03
75298;BME280;63896;45.990;18.688;2022-12-07T12:24:27;100646.69;;;7.69;65.05
75298;BME280;63896;45.990;18.688;2022-12-07T12:27:35;100656.34;;;8.04;65.49
75298;BME280;63896;45.990;18.688;2022-12-07T12:37:53;100651.94;;;7.62;65.71
75298;BME280;63896;45.990;18.688;2022-12-07T12:40:57;100649.19;;;6.84;68.10
75298;BME280;63896;45.990;18.688;2022-12-07T12:44:01;100643.47;;;6.81;67.96
75298;BME280;63896;45.990;18.688;2022-12-07T12:47:40;100650.09;;;6.91;68.22
75298;BME280;63896;45.990;18.688;2022-12-07T12:50:47;100643.44;;;7.10;68.54
75298;BME280;63896;45.990;18.688;2022-12-07T12:53:51;100650.56;;;6.95;69.49
75298;BME280;63896;45.990;18.688;2022-12-07T13:00:19;100649.47;;;6.45;71.91
75298;BME280;63896;45.990;18.688;2022-12-07T13:03:27;100652.72;;;6.18;73.42
75298;BME280;63896;45.990;18.688;2022-12-07T13:06:35;100643.19;;;6.17;74.61
75298;BME280;63896;45.990;18.688;2022-12-07T13:09:44;100635.47;;;6.30;73.28
75298;BME280;63896;45.990;18.688;2022-12-07T13:23:04;100646.28;;;6.35;73.96
75298;BME280;63896;45.990;18.688;2022-12-07T13:26:18;100639.22;;;6.36;73.55
75298;BME280;63896;45.990;18.688;2022-12-07T13:29:21;100637.56;;;6.35;73.67
75298;BME280;63896;45.990;18.688;2022-12-07T13:32:29;100643.06;;;6.10;74.98
75298;BME280;63896;45.990;18.688;2022-12-07T13:35:37;100642.38;;;6.16;75.21
75298;BME280;63896;45.990;18.688;2022-12-07T13:38:49;100647.94;;;6.51;74.52
75298;BME280;63896;45.990;18.688;2022-12-07T13:42:40;100642.84;;;6.35;75.13
75298;BME280;63896;45.990;18.688;2022-12-07T13:45:44;100656.75;;;6.29;75.47
75298;BME280;63896;45.990;18.688;2022-12-07T13:48:54;100644.13;;;6.39;75.49
75298;BME280;63896;45.990;18.688;2022-12-07T13:52:14;100658.09;;;6.25;75.23
75298;BME280;63896;45.990;18.688;2022-12-07T13:55:21;100642.00;;;6.19;75.25
75298;BME280;63896;45.990;18.688;2022-12-07T13:58:25;100639.53;;;6.18;74.96
75298;BME280;63896;45.990;18.688;2022-12-07T14:01:32;100639.91;;;6.30;74.20
75298;BME280;63896;45.990;18.688;2022-12-07T14:04:37;100657.06;;;6.11;76.21
75298;BME280;63896;45.990;18.688;2022-12-07T14:11:34;100655.31;;;6.41;76.00
75298;BME280;63896;45.990;18.688;2022-12-07T14:14:47;100651.56;;;6.35;76.87
75298;BME280;63896;45.990;18.688;2022-12-07T14:17:53;100650.44;;;6.30;76.44
75298;BME280;63896;45.990;18.688;2022-12-07T14:21:05;100654.00;;;6.22;77.30
75298;BME280;63896;45.990;18.688;2022-12-07T14:24:19;100667.16;;;6.22;76.99
75298;BME280;63896;45.990;18.688;2022-12-07T14:27:24;100671.06;;;6.11;77.45
75298;BME280;63896;45.990;18.688;2022-12-07T14:30:34;100673.06;;;6.09;78.16
75298;BME280;63896;45.990;18.688;2022-12-07T14:33:39;100671.94;;;6.04;77.09
75298;BME280;63896;45.990;18.688;2022-12-07T14:36:42;100675.00;;;6.30;76.10
75298;BME280;63896;45.990;18.688;2022-12-07T14:39:45;100676.41;;;6.18;76.33
75298;BME280;63896;45.990;18.688;2022-12-07T14:42:53;100671.25;;;5.87;77.02
75298;BME280;63896;45.990;18.688;2022-12-07T14:45:57;100690.72;;;5.78;77.52
75298;BME280;63896;45.990;18.688;2022-12-07T14:49:01;100686.38;;;5.62;78.52
75298;BME280;63896;45.990;18.688;2022-12-07T14:52:27;100676.84;;;5.61;78.75
75298;BME280;63896;45.990;18.688;2022-12-07T14:55:51;100671.88;;;5.66;78.93
75298;BME280;63896;45.990;18.688;2022-12-07T14:58:54;100679.41;;;5.47;78.84
75298;BME280;63896;45.990;18.688;2022-12-07T15:01:57;100670.94;;;5.37;79.74
75298;BME280;63896;45.990;18.688;2022-12-07T15:05:03;100674.59;;;5.27;81.48
75298;BME280;63896;45.990;18.688;2022-12-07T15:08:12;100676.28;;;5.20;81.80
75298;BME280;63896;45.990;18.688;2022-12-07T15:11:16;100675.31;;;5.13;82.19
75298;BME280;63896;45.990;18.688;2022-12-07T15:14:20;100674.34;;;5.06;82.49
75298;BME280;63896;45.990;18.688;2022-12-07T15:17:25;100680.09;;;5.10;82.24
75298;BME280;63896;45.990;18.688;2022-12-07T15:20:33;100689.50;;;5.04;82.44
75298;BME280;63896;45.990;18.688;2022-12-07T15:23:37;100680.00;;;4.95;82.38
75298;BME280;63896;45.990;18.688;2022-12-07T15:26:40;100688.88;;;4.94;81.34
75298;BME280;63896;45.990;18.688;2022-12-07T15:29:43;100678.03;;;4.97;81.46
75298;BME280;63896;45.990;18.688;2022-12-07T15:32:53;100677.84;;;4.99;82.08
75298;BME280;63896;45.990;18.688;2022-12-07T15:35:58;100682.25;;;5.06;81.64
75298;BME280;63896;45.990;18.688;2022-12-07T15:39:02;100697.34;;;5.12;81.91
75298;BME280;63896;45.990;18.688;2022-12-07T15:42:21;100680.91;;;5.10;82.04
75298;BME280;63896;45.990;18.688;2022-12-07T15:45:24;100678.75;;;5.14;81.38
75298;BME280;63896;45.990;18.688;2022-12-07T15:48:27;100692.69;;;5.22;81.01
75298;BME280;63896;45.990;18.688;2022-12-07T15:51:31;100695.97;;;5.24;81.34
75298;BME280;63896;45.990;18.688;2022-12-07T15:54:34;100702.53;;;5.28;80.56
75298;BME280;63896;45.990;18.688;2022-12-07T15:57:38;100689.00;;;5.01;81.43
75298;BME280;63896;45.990;18.688;2022-12-07T16:00:41;100697.91;;;4.92;81.94
75298;BME280;63896;45.990;18.688;2022-12-07T16:03:44;100697.56;;;4.95;81.59
75298;BME280;63896;45.990;18.688;2022-12-07T16:06:47;100704.91;;;5.07;81.33
75298;BME280;63896;45.990;18.688;2022-12-07T16:09:50;100707.53;;;5.15;81.01
75298;BME280;63896;45.990;18.688;2022-12-07T16:12:53;100695.69;;;5.11;80.55
75298;BME280;63896;45.990;18.688;2022-12-07T16:15:57;100700.44;;;5.16;80.27
75298;BME280;63896;45.990;18.688;2022-12-07T16:19:00;100714.44;;;5.16;80.29
75298;BME280;63896;45.990;18.688;2022-12-07T16:22:03;100726.41;;;5.19;80.49
75298;BME280;63896;45.990;18.688;2022-12-07T16:25:06;100721.66;;;5.14;80.30
75298;BME280;63896;45.990;18.688;2022-12-07T16:28:09;100715.44;;;5.07;81.20
75298;BME280;63896;45.990;18.688;2022-12-07T16:31:14;100724.16;;;5.08;81.00
75298;BME280;63896;45.990;18.688;2022-12-07T16:34:18;100720.06;;;5.05;81.33
75298;BME280;63896;45.990;18.688;2022-12-07T16:37:21;100741.22;;;5.12;81.04
75298;BME280;63896;45.990;18.688;2022-12-07T16:40:24;100738.75;;;5.10;81.06
75298;BME280;63896;45.990;18.688;2022-12-07T16:43:27;100739.91;;;5.16;80.90
75298;BME280;63896;45.990;18.688;2022-12-07T16:46:32;100734.81;;;5.14;81.38
75298;BME280;63896;45.990;18.688;2022-12-07T16:49:36;100740.28;;;5.05;82.39
75298;BME280;63896;45.990;18.688;2022-12-07T16:52:39;100740.94;;;4.99;82.53
75298;BME280;63896;45.990;18.688;2022-12-07T16:55:44;100745.69;;;5.03;83.08
75298;BME280;63896;45.990;18.688;2022-12-07T16:58:47;100754.25;;;5.05;83.04
75298;BME280;63896;45.990;18.688;2022-12-07T17:01:52;100748.16;;;5.05;83.14
75298;BME280;63896;45.990;18.688;2022-12-07T17:04:55;100747.53;;;4.95;82.82
75298;BME280;63896;45.990;18.688;2022-12-07T17:07:58;100748.19;;;4.97;83.41
75298;BME280;63896;45.990;18.688;2022-12-07T17:11:01;100758.19;;;5.01;83.03
75298;BME280;63896;45.990;18.688;2022-12-07T17:14:04;100757.72;;;4.98;83.00
75298;BME280;63896;45.990;18.688;2022-12-07T17:17:25;100767.41;;;5.05;83.41
75298;BME280;63896;45.990;18.688;2022-12-07T17:20:28;100767.72;;;5.02;83.07
75298;BME280;63896;45.990;18.688;2022-12-07T17:23:32;100764.44;;;5.00;83.37
75298;BME280;63896;45.990;18.688;2022-12-07T17:26:36;100762.63;;;5.01;83.38
75298;BME280;63896;45.990;18.688;2022-12-07T17:29:40;100753.78;;;4.94;82.88
75298;BME280;63896;45.990;18.688;2022-12-07T17:32:42;100759.19;;;4.92;83.21
75298;BME280;63896;45.990;18.688;2022-12-07T17:35:45;100765.13;;;4.94;84.15
75298;BME280;63896;45.990;18.688;2022-12-07T17:38:49;100762.66;;;4.93;83.80
75298;BME280;63896;45.990;18.688;2022-12-07T17:41:53;100762.00;;;4.91;83.68
75298;BME280;63896;45.990;18.688;2022-12-07T17:45:14;100766.59;;;4.97;83.48
75298;BME280;63896;45.990;18.688;2022-12-07T17:48:17;100769.72;;;4.92;83.98
75298;BME280;63896;45.990;18.688;2022-12-07T17:51:20;100771.75;;;4.66;85.04
75298;BME280;63896;45.990;18.688;2022-12-07T17:54:42;100773.72;;;4.56;85.30
75298;BME280;63896;45.990;18.688;2022-12-07T17:57:44;100770.44;;;4.62;85.70
75298;BME280;63896;45.990;18.688;2022-12-07T18:00:47;100779.63;;;4.74;85.06
75298;BME280;63896;45.990;18.688;2022-12-07T18:03:52;100791.13;;;4.73;85.45